sensor_id;sensor_type;location;lat;lon;timestamp;P1;durP1;ratioP1;P2;durP2;ratioP2
19782;SDS011;10051;40.294;-3.754;2022-09-27T00:01:00;4.50;;;1.23;;
19782;SDS011;10051;40.294;-3.754;2022-09-27T00:03:27;5.63;;;0.93;;
19782;SDS011;10051;40.294;-3.754;2022-09-27T00:06:00;1.92;;;1.10;;
19782;SDS011;10051;40.294;-3.754;2022-09-27T00:08:29;2.15;;;0.95;;
19782;SDS011;10051;40.294;-3.754;2022-09-27T00:11:02;6.43;;;0.90;;
19782;SDS011;10051;40.294;-3.754;2022-09-27T00:13:30;3.17;;;0.90;;
19782;SDS011;10051;40.294;-3.754;2022-09-27T00:15:56;6.38;;;1.50;;
19782;SDS011;10051;40.294;-3.754;2022-09-27T00:18:29;2.75;;;1.15;;
19782;SDS011;10051;40.294;-3.754;2022-09-27T00:20:55;5.70;;;1.00;;
19782;SDS011;10051;40.294;-3.754;2022-09-27T00:23:21;3.28;;;1.08;;
19782;SDS011;10051;40.294;-3.754;2022-09-27T00:25:56;3.60;;;1.50;;
19782;SDS011;10051;40.294;-3.754;2022-09-27T00:28:22;3.83;;;1.50;;
19782;SDS011;10051;40.294;-3.754;2022-09-27T00:30:48;6.13;;;1.30;;
19782;SDS011;10051;40.294;-3.754;2022-09-27T00:33:14;6.15;;;1.38;;
19782;SDS011;10051;40.294;-3.754;2022-09-27T00:35:39;1.42;;;0.98;;
19782;SDS011;10051;40.294;-3.754;2022-09-27T00:38:05;2.97;;;0.95;;
19782;SDS011;10051;40.294;-3.754;2022-09-27T00:40:31;5.50;;;1.00;;
19782;SDS011;10051;40.294;-3.754;2022-09-27T00:42:57;1.42;;;0.80;;
19782;SDS011;10051;40.294;-3.754;2022-09-27T00:45:22;2.53;;;0.90;;
19782;SDS011;10051;40.294;-3.754;2022-09-27T00:50:31;2.75;;;1.00;;
19782;SDS011;10051;40.294;-3.754;2022-09-27T00:55:40;2.53;;;0.82;;
19782;SDS011;10051;40.294;-3.754;2022-09-27T00:58:09;2.75;;;0.85;;
19782;SDS011;10051;40.294;-3.754;2022-09-27T01:00:41;2.35;;;1.10;;
19782;SDS011;10051;40.294;-3.754;2022-09-27T01:03:12;2.20;;;1.10;;
19782;SDS011;10051;40.294;-3.754;2022-09-27T01:05:45;3.40;;;0.90;;
19782;SDS011;10051;40.294;-3.754;2022-09-27T01:08:11;3.20;;;1.20;;
19782;SDS011;10051;40.294;-3.754;2022-09-27T01:10:39;2.70;;;0.90;;
19782;SDS011;10051;40.294;-3.754;2022-09-27T01:13:20;1.38;;;0.90;;
19782;SDS011;10051;40.294;-3.754;2022-09-27T01:16:01;3.17;;;0.90;;
19782;SDS011;10051;40.294;-3.754;2022-09-27T01:24:27;3.67;;;1.15;;
19782;SDS011;10051;40.294;-3.754;2022-09-27T01:38:14;6.25;;;1.15;;
19782;SDS011;10051;40.294;-3.754;2022-09-27T01:40:50;1.92;;;0.85;;
19782;SDS011;10051;40.294;-3.754;2022-09-27T01:43:30;3.35;;;1.13;;
19782;SDS011;10051;40.294;-3.754;2022-09-27T01:46:14;1.77;;;0.90;;
19782;SDS011;10051;40.294;-3.754;2022-09-27T01:48:46;1.75;;;0.80;;
19782;SDS011;10051;40.294;-3.754;2022-09-27T01:51:18;6.80;;;1.02;;
19782;SDS011;10051;40.294;-3.754;2022-09-27T01:53:52;2.58;;;0.98;;
19782;SDS011;10051;40.294;-3.754;2022-09-27T01:56:30;2.22;;;0.80;;
19782;SDS011;10051;40.294;-3.754;2022-09-27T01:59:06;4.00;;;0.90;;
19782;SDS011;10051;40.294;-3.754;2022-09-27T02:01:39;2.58;;;0.70;;
19782;SDS011;10051;40.294;-3.754;2022-09-27T02:04:10;2.15;;;0.80;;
19782;SDS011;10051;40.294;-3.754;2022-09-27T02:06:41;1.50;;;0.70;;
19782;SDS011;10051;40.294;-3.754;2022-09-27T02:09:11;2.35;;;0.85;;
19782;SDS011;10051;40.294;-3.754;2022-09-27T02:11:44;2.25;;;0.65;;
19782;SDS011;10051;40.294;-3.754;2022-09-27T02:14:20;2.53;;;0.90;;
19782;SDS011;10051;40.294;-3.754;2022-09-27T02:16:58;4.40;;;0.82;;
19782;SDS011;10051;40.294;-3.754;2022-09-27T02:27:39;3.42;;;0.80;;
19782;SDS011;10051;40.294;-3.754;2022-09-27T02:30:14;2.38;;;0.80;;
19782;SDS011;10051;40.294;-3.754;2022-09-27T02:32:41;1.15;;;0.70;;
19782;SDS011;10051;40.294;-3.754;2022-09-27T02:35:17;3.50;;;0.70;;
19782;SDS011;10051;40.294;-3.754;2022-09-27T02:37:46;0.93;;;0.50;;
19782;SDS011;10051;40.294;-3.754;2022-09-27T02:40:12;2.20;;;0.70;;
19782;SDS011;10051;40.294;-3.754;2022-09-27T02:42:37;3.85;;;0.60;;
19782;SDS011;10051;40.294;-3.754;2022-09-27T02:45:05;1.08;;;0.68;;
19782;SDS011;10051;40.294;-3.754;2022-09-27T03:06:31;7.20;;;0.80;;
19782;SDS011;10051;40.294;-3.754;2022-09-27T03:08:58;1.90;;;0.90;;
19782;SDS011;10051;40.294;-3.754;2022-09-27T03:11:23;3.90;;;0.70;;
19782;SDS011;10051;40.294;-3.754;2022-09-27T03:13:49;2.95;;;0.70;;
19782;SDS011;10051;40.294;-3.754;2022-09-27T03:16:14;1.98;;;0.70;;
19782;SDS011;10051;40.294;-3.754;2022-09-27T03:18:40;4.25;;;0.70;;
19782;SDS011;10051;40.294;-3.754;2022-09-27T03:21:06;2.90;;;0.80;;
19782;SDS011;10051;40.294;-3.754;2022-09-27T03:23:31;2.92;;;0.80;;
19782;SDS011;10051;40.294;-3.754;2022-09-27T03:25:57;2.03;;;0.80;;
19782;SDS011;10051;40.294;-3.754;2022-09-27T03:28:23;4.15;;;0.70;;
19782;SDS011;10051;40.294;-3.754;2022-09-27T03:30:49;1.70;;;0.60;;
19782;SDS011;10051;40.294;-3.754;2022-09-27T03:33:15;2.60;;;0.70;;
19782;SDS011;10051;40.294;-3.754;2022-09-27T03:35:41;4.10;;;0.73;;
19782;SDS011;10051;40.294;-3.754;2022-09-27T03:38:07;1.50;;;0.70;;
19782;SDS011;10051;40.294;-3.754;2022-09-27T03:40:33;0.90;;;0.50;;
19782;SDS011;10051;40.294;-3.754;2022-09-27T03:43:00;1.00;;;0.70;;
19782;SDS011;10051;40.294;-3.754;2022-09-27T03:45:25;2.95;;;0.70;;
19782;SDS011;10051;40.294;-3.754;2022-09-27T03:47:51;1.13;;;0.75;;
19782;SDS011;10051;40.294;-3.754;2022-09-27T03:50:16;3.22;;;0.70;;
19782;SDS011;10051;40.294;-3.754;2022-09-27T03:52:42;2.08;;;0.75;;
19782;SDS011;10051;40.294;-3.754;2022-09-27T03:55:09;2.83;;;0.80;;
19782;SDS011;10051;40.294;-3.754;2022-09-27T03:57:36;2.45;;;0.90;;
19782;SDS011;10051;40.294;-3.754;2022-09-27T04:00:02;2.90;;;0.80;;
19782;SDS011;10051;40.294;-3.754;2022-09-27T04:02:28;1.30;;;0.70;;
19782;SDS011;10051;40.294;-3.754;2022-09-27T04:04:54;2.35;;;0.80;;
19782;SDS011;10051;40.294;-3.754;2022-09-27T04:07:19;1.90;;;0.80;;
19782;SDS011;10051;40.294;-3.754;2022-09-27T04:09:45;2.15;;;0.82;;
19782;SDS011;10051;40.294;-3.754;2022-09-27T04:12:11;1.17;;;0.75;;
19782;SDS011;10051;40.294;-3.754;2022-09-27T04:14:37;3.47;;;0.93;;
19782;SDS011;10051;40.294;-3.754;2022-09-27T04:17:02;2.17;;;0.85;;
19782;SDS011;10051;40.294;-3.754;2022-09-27T04:19:28;4.28;;;0.90;;
19782;SDS011;10051;40.294;-3.754;2022-09-27T04:21:53;1.80;;;0.88;;
19782;SDS011;10051;40.294;-3.754;2022-09-27T04:24:19;2.45;;;0.93;;
19782;SDS011;10051;40.294;-3.754;2022-09-27T04:26:44;2.35;;;1.00;;
19782;SDS011;10051;40.294;-3.754;2022-09-27T04:29:11;6.45;;;0.80;;
19782;SDS011;10051;40.294;-3.754;2022-09-27T04:31:36;5.47;;;1.45;;
19782;SDS011;10051;40.294;-3.754;2022-09-27T04:34:03;4.13;;;1.20;;
19782;SDS011;10051;40.294;-3.754;2022-09-27T04:36:31;2.33;;;1.00;;
19782;SDS011;10051;40.294;-3.754;2022-09-27T04:38:57;2.03;;;0.90;;
19782;SDS011;10051;40.294;-3.754;2022-09-27T04:41:24;2.58;;;0.95;;
19782;SDS011;10051;40.294;-3.754;2022-09-27T04:43:52;6.75;;;1.00;;
19782;SDS011;10051;40.294;-3.754;2022-09-27T04:46:19;3.60;;;1.33;;
19782;SDS011;10051;40.294;-3.754;2022-09-27T04:48:45;7.07;;;1.20;;
19782;SDS011;10051;40.294;-3.754;2022-09-27T04:51:12;4.88;;;1.10;;
19782;SDS011;10051;40.294;-3.754;2022-09-27T04:53:37;8.48;;;1.08;;
19782;SDS011;10051;40.294;-3.754;2022-09-27T04:56:03;3.45;;;1.42;;
19782;SDS011;10051;40.294;-3.754;2022-09-27T04:58:31;5.65;;;1.17;;
19782;SDS011;10051;40.294;-3.754;2022-09-27T05:00:58;3.50;;;1.00;;
19782;SDS011;10051;40.294;-3.754;2022-09-27T05:03:24;3.20;;;1.02;;
19782;SDS011;10051;40.294;-3.754;2022-09-27T05:05:50;6.10;;;0.90;;
19782;SDS011;10051;40.294;-3.754;2022-09-27T05:08:15;1.73;;;0.90;;
19782;SDS011;10051;40.294;-3.754;2022-09-27T05:10:41;4.40;;;1.10;;
19782;SDS011;10051;40.294;-3.754;2022-09-27T05:13:06;5.63;;;1.10;;
19782;SDS011;10051;40.294;-3.754;2022-09-27T05:15:32;2.92;;;0.98;;
19782;SDS011;10051;40.294;-3.754;2022-09-27T05:17:58;2.63;;;1.17;;
19782;SDS011;10051;40.294;-3.754;2022-09-27T05:20:24;4.22;;;1.17;;
19782;SDS011;10051;40.294;-3.754;2022-09-27T05:22:50;4.82;;;1.20;;
19782;SDS011;10051;40.294;-3.754;2022-09-27T05:25:16;5.32;;;1.73;;
19782;SDS011;10051;40.294;-3.754;2022-09-27T05:27:42;2.17;;;1.17;;
19782;SDS011;10051;40.294;-3.754;2022-09-27T05:30:07;4.72;;;1.38;;
19782;SDS011;10051;40.294;-3.754;2022-09-27T05:32:33;4.82;;;1.33;;
19782;SDS011;10051;40.294;-3.754;2022-09-27T05:34:59;3.60;;;1.35;;
19782;SDS011;10051;40.294;-3.754;2022-09-27T05:37:24;5.95;;;1.45;;
19782;SDS011;10051;40.294;-3.754;2022-09-27T05:39:50;2.03;;;1.23;;
19782;SDS011;10051;40.294;-3.754;2022-09-27T05:42:16;3.90;;;1.50;;
19782;SDS011;10051;40.294;-3.754;2022-09-27T05:44:43;7.22;;;1.33;;
19782;SDS011;10051;40.294;-3.754;2022-09-27T05:47:11;3.13;;;1.80;;
19782;SDS011;10051;40.294;-3.754;2022-09-27T05:49:37;5.45;;;1.98;;
19782;SDS011;10051;40.294;-3.754;2022-09-27T05:52:04;4.80;;;1.90;;
19782;SDS011;10051;40.294;-3.754;2022-09-27T05:54:30;3.97;;;1.50;;
19782;SDS011;10051;40.294;-3.754;2022-09-27T05:56:56;5.15;;;1.63;;
19782;SDS011;10051;40.294;-3.754;2022-09-27T05:59:23;6.55;;;1.92;;
19782;SDS011;10051;40.294;-3.754;2022-09-27T06:01:50;6.45;;;1.75;;
19782;SDS011;10051;40.294;-3.754;2022-09-27T06:04:16;5.05;;;1.77;;
19782;SDS011;10051;40.294;-3.754;2022-09-27T06:06:42;5.75;;;1.88;;
19782;SDS011;10051;40.294;-3.754;2022-09-27T06:09:14;7.88;;;2.40;;
19782;SDS011;10051;40.294;-3.754;2022-09-27T06:11:41;9.73;;;2.20;;
19782;SDS011;10051;40.294;-3.754;2022-09-27T06:14:11;8.60;;;2.17;;
19782;SDS011;10051;40.294;-3.754;2022-09-27T06:16:40;10.73;;;2.50;;
19782;SDS011;10051;40.294;-3.754;2022-09-27T06:19:06;8.35;;;2.20;;
19782;SDS011;10051;40.294;-3.754;2022-09-27T06:21:31;11.27;;;2.50;;
19782;SDS011;10051;40.294;-3.754;2022-09-27T06:23:57;6.32;;;2.10;;
19782;SDS011;10051;40.294;-3.754;2022-09-27T06:26:26;6.47;;;2.20;;
19782;SDS011;10051;40.294;-3.754;2022-09-27T06:28:52;6.32;;;2.15;;
19782;SDS011;10051;40.294;-3.754;2022-09-27T06:31:18;5.30;;;2.08;;
19782;SDS011;10051;40.294;-3.754;2022-09-27T06:33:45;8.30;;;2.17;;
19782;SDS011;10051;40.294;-3.754;2022-09-27T06:36:11;10.20;;;2.33;;
19782;SDS011;10051;40.294;-3.754;2022-09-27T06:38:37;13.82;;;2.47;;
19782;SDS011;10051;40.294;-3.754;2022-09-27T06:41:05;6.38;;;2.63;;
19782;SDS011;10051;40.294;-3.754;2022-09-27T06:43:31;11.30;;;2.80;;
19782;SDS011;10051;40.294;-3.754;2022-09-27T06:46:02;7.57;;;2.72;;
19782;SDS011;10051;40.294;-3.754;2022-09-27T06:48:33;363.67;;;26.33;;
19782;SDS011;10051;40.294;-3.754;2022-09-27T06:51:02;465.75;;;28.20;;
19782;SDS011;10051;40.294;-3.754;2022-09-27T06:53:29;98.93;;;9.32;;
19782;SDS011;10051;40.294;-3.754;2022-09-27T06:55:58;14.90;;;2.88;;
19782;SDS011;10051;40.294;-3.754;2022-09-27T06:58:27;20.42;;;3.17;;
19782;SDS011;10051;40.294;-3.754;2022-09-27T07:01:11;97.18;;;7.28;;
19782;SDS011;10051;40.294;-3.754;2022-09-27T07:03:37;35.20;;;3.60;;
19782;SDS011;10051;40.294;-3.754;2022-09-27T07:06:06;93.13;;;6.68;;
19782;SDS011;10051;40.294;-3.754;2022-09-27T07:08:36;45.85;;;4.07;;
19782;SDS011;10051;40.294;-3.754;2022-09-27T07:11:04;12.23;;;2.80;;
19782;SDS011;10051;40.294;-3.754;2022-09-27T07:13:31;14.77;;;3.05;;
19782;SDS011;10051;40.294;-3.754;2022-09-27T07:15:58;38.50;;;4.07;;
19782;SDS011;10051;40.294;-3.754;2022-09-27T07:18:25;55.88;;;5.25;;
19782;SDS011;10051;40.294;-3.754;2022-09-27T07:20:51;8.02;;;2.38;;
19782;SDS011;10051;40.294;-3.754;2022-09-27T07:23:24;8.55;;;2.08;;
19782;SDS011;10051;40.294;-3.754;2022-09-27T07:25:53;15.25;;;2.10;;
19782;SDS011;10051;40.294;-3.754;2022-09-27T07:28:18;6.32;;;1.80;;
19782;SDS011;10051;40.294;-3.754;2022-09-27T07:30:44;8.30;;;1.70;;
19782;SDS011;10051;40.294;-3.754;2022-09-27T07:33:10;8.15;;;1.70;;
19782;SDS011;10051;40.294;-3.754;2022-09-27T07:35:39;5.97;;;1.80;;
19782;SDS011;10051;40.294;-3.754;2022-09-27T07:38:06;6.88;;;1.73;;
19782;SDS011;10051;40.294;-3.754;2022-09-27T07:40:35;53.03;;;3.42;;
19782;SDS011;10051;40.294;-3.754;2022-09-27T07:43:02;52.10;;;3.72;;
19782;SDS011;10051;40.294;-3.754;2022-09-27T07:45:28;98.45;;;5.60;;
19782;SDS011;10051;40.294;-3.754;2022-09-27T07:47:55;6.82;;;1.50;;
19782;SDS011;10051;40.294;-3.754;2022-09-27T07:50:20;6.25;;;1.30;;
19782;SDS011;10051;40.294;-3.754;2022-09-27T07:52:47;9.07;;;1.60;;
19782;SDS011;10051;40.294;-3.754;2022-09-27T07:55:15;7.90;;;1.48;;
19782;SDS011;10051;40.294;-3.754;2022-09-27T07:57:42;9.18;;;1.83;;
19782;SDS011;10051;40.294;-3.754;2022-09-27T08:00:10;3.90;;;1.30;;
19782;SDS011;10051;40.294;-3.754;2022-09-27T08:02:39;4.82;;;1.10;;
19782;SDS011;10051;40.294;-3.754;2022-09-27T08:05:05;5.82;;;0.95;;
19782;SDS011;10051;40.294;-3.754;2022-09-27T08:07:31;3.80;;;1.00;;
19782;SDS011;10051;40.294;-3.754;2022-09-27T08:09:57;2.53;;;0.82;;
19782;SDS011;10051;40.294;-3.754;2022-09-27T08:12:22;2.40;;;0.83;;
19782;SDS011;10051;40.294;-3.754;2022-09-27T08:14:48;2.20;;;0.90;;
19782;SDS011;10051;40.294;-3.754;2022-09-27T08:17:13;2.70;;;0.90;;
19782;SDS011;10051;40.294;-3.754;2022-09-27T08:19:39;1.90;;;0.90;;
19782;SDS011;10051;40.294;-3.754;2022-09-27T08:22:08;4.93;;;0.65;;
19782;SDS011;10051;40.294;-3.754;2022-09-27T08:24:33;1.80;;;0.80;;
19782;SDS011;10051;40.294;-3.754;2022-09-27T08:26:59;2.65;;;0.80;;
19782;SDS011;10051;40.294;-3.754;2022-09-27T08:29:26;2.45;;;0.63;;
19782;SDS011;10051;40.294;-3.754;2022-09-27T08:31:51;2.05;;;0.70;;
19782;SDS011;10051;40.294;-3.754;2022-09-27T08:34:18;2.92;;;0.70;;
19782;SDS011;10051;40.294;-3.754;2022-09-27T08:36:45;3.47;;;0.80;;
19782;SDS011;10051;40.294;-3.754;2022-09-27T08:39:11;2.72;;;0.75;;
19782;SDS011;10051;40.294;-3.754;2022-09-27T08:49:42;1.35;;;0.68;;
19782;SDS011;10051;40.294;-3.754;2022-09-27T08:52:18;1.40;;;0.73;;
19782;SDS011;10051;40.294;-3.754;2022-09-27T08:54:51;2.35;;;0.80;;
19782;SDS011;10051;40.294;-3.754;2022-09-27T08:57:20;3.40;;;0.90;;
19782;SDS011;10051;40.294;-3.754;2022-09-27T09:00:10;2.90;;;0.70;;
19782;SDS011;10051;40.294;-3.754;2022-09-27T09:02:37;5.20;;;1.08;;
19782;SDS011;10051;40.294;-3.754;2022-09-27T09:19:12;1.83;;;0.70;;
19782;SDS011;10051;40.294;-3.754;2022-09-27T09:33:30;3.40;;;0.80;;
19782;SDS011;10051;40.294;-3.754;2022-09-27T09:35:30;2.05;;;0.80;;
19782;SDS011;10051;40.294;-3.754;2022-09-27T09:38:14;3.55;;;0.95;;
19782;SDS011;10051;40.294;-3.754;2022-09-27T09:40:49;1.70;;;0.70;;
19782;SDS011;10051;40.294;-3.754;2022-09-27T09:43:33;2.78;;;0.90;;
19782;SDS011;10051;40.294;-3.754;2022-09-27T09:46:40;3.15;;;0.95;;
19782;SDS011;10051;40.294;-3.754;2022-09-27T09:51:55;3.92;;;0.70;;
19782;SDS011;10051;40.294;-3.754;2022-09-27T09:54:29;2.75;;;0.73;;
19782;SDS011;10051;40.294;-3.754;2022-09-27T09:57:24;1.70;;;0.50;;
19782;SDS011;10051;40.294;-3.754;2022-09-27T10:00:05;5.50;;;0.80;;
19782;SDS011;10051;40.294;-3.754;2022-09-27T10:02:38;3.20;;;0.65;;
19782;SDS011;10051;40.294;-3.754;2022-09-27T10:05:06;3.10;;;0.60;;
19782;SDS011;10051;40.294;-3.754;2022-09-27T10:07:38;1.20;;;0.60;;
19782;SDS011;10051;40.294;-3.754;2022-09-27T10:10:04;2.17;;;0.50;;
19782;SDS011;10051;40.294;-3.754;2022-09-27T10:12:32;0.95;;;0.60;;
19782;SDS011;10051;40.294;-3.754;2022-09-27T10:15:00;0.88;;;0.50;;
19782;SDS011;10051;40.294;-3.754;2022-09-27T10:17:36;1.75;;;0.70;;
19782;SDS011;10051;40.294;-3.754;2022-09-27T10:20:04;1.40;;;0.50;;
19782;SDS011;10051;40.294;-3.754;2022-09-27T10:22:44;2.50;;;0.60;;
19782;SDS011;10051;40.294;-3.754;2022-09-27T10:25:13;0.93;;;0.43;;
19782;SDS011;10051;40.294;-3.754;2022-09-27T10:27:44;0.57;;;0.40;;
19782;SDS011;10051;40.294;-3.754;2022-09-27T10:32:50;1.27;;;0.50;;
19782;SDS011;10051;40.294;-3.754;2022-09-27T10:35:34;1.20;;;0.50;;
19782;SDS011;10051;40.294;-3.754;2022-09-27T10:40:49;0.98;;;0.55;;
19782;SDS011;10051;40.294;-3.754;2022-09-27T10:46:02;1.30;;;0.60;;
19782;SDS011;10051;40.294;-3.754;2022-09-27T10:48:37;0.88;;;0.50;;
19782;SDS011;10051;40.294;-3.754;2022-09-27T10:51:19;0.80;;;0.50;;
19782;SDS011;10051;40.294;-3.754;2022-09-27T10:53:49;1.20;;;0.60;;
19782;SDS011;10051;40.294;-3.754;2022-09-27T10:56:22;4.97;;;0.70;;
19782;SDS011;10051;40.294;-3.754;2022-09-27T10:58:52;0.90;;;0.50;;
19782;SDS011;10051;40.294;-3.754;2022-09-27T11:01:19;1.08;;;0.60;;
19782;SDS011;10051;40.294;-3.754;2022-09-27T11:03:50;3.53;;;0.70;;
19782;SDS011;10051;40.294;-3.754;2022-09-27T11:08:47;2.75;;;0.50;;
19782;SDS011;10051;40.294;-3.754;2022-09-27T11:11:24;2.50;;;0.70;;
19782;SDS011;10051;40.294;-3.754;2022-09-27T11:16:35;1.13;;;0.50;;
19782;SDS011;10051;40.294;-3.754;2022-09-27T11:38:01;0.52;;;0.45;;
19782;SDS011;10051;40.294;-3.754;2022-09-27T11:40:45;1.05;;;0.50;;
19782;SDS011;10051;40.294;-3.754;2022-09-27T11:46:32;1.48;;;0.40;;
19782;SDS011;10051;40.294;-3.754;2022-09-27T11:52:10;1.15;;;0.40;;
19782;SDS011;10051;40.294;-3.754;2022-09-27T12:00:22;2.60;;;0.77;;
19782;SDS011;10051;40.294;-3.754;2022-09-27T12:11:00;0.60;;;0.50;;
19782;SDS011;10051;40.294;-3.754;2022-09-27T12:13:44;0.90;;;0.45;;
19782;SDS011;10051;40.294;-3.754;2022-09-27T12:16:14;0.85;;;0.50;;
19782;SDS011;10051;40.294;-3.754;2022-09-27T12:18:42;2.05;;;0.50;;
19782;SDS011;10051;40.294;-3.754;2022-09-27T12:21:11;0.50;;;0.50;;
19782;SDS011;10051;40.294;-3.754;2022-09-27T12:23:42;1.25;;;0.40;;
19782;SDS011;10051;40.294;-3.754;2022-09-27T12:34:39;1.05;;;0.50;;
19782;SDS011;10051;40.294;-3.754;2022-09-27T12:37:14;0.50;;;0.50;;
19782;SDS011;10051;40.294;-3.754;2022-09-27T12:39:50;1.65;;;0.50;;
19782;SDS011;10051;40.294;-3.754;2022-09-27T12:42:23;1.95;;;0.50;;
19782;SDS011;10051;40.294;-3.754;2022-09-27T12:44:56;0.85;;;0.50;;
19782;SDS011;10051;40.294;-3.754;2022-09-27T12:50:23;0.60;;;0.47;;
19782;SDS011;10051;40.294;-3.754;2022-09-27T12:53:01;2.60;;;0.68;;
19782;SDS011;10051;40.294;-3.754;2022-09-27T13:12:13;1.27;;;0.50;;
19782;SDS011;10051;40.294;-3.754;2022-09-27T13:14:59;3.00;;;0.40;;
19782;SDS011;10051;40.294;-3.754;2022-09-27T13:22:55;1.27;;;0.32;;
19782;SDS011;10051;40.294;-3.754;2022-09-27T13:33:44;0.63;;;0.30;;
19782;SDS011;10051;40.294;-3.754;2022-09-27T13:41:35;0.93;;;0.32;;
19782;SDS011;10051;40.294;-3.754;2022-09-27T13:46:46;1.13;;;0.30;;
19782;SDS011;10051;40.294;-3.754;2022-09-27T13:52:16;1.75;;;0.35;;
19782;SDS011;10051;40.294;-3.754;2022-09-27T13:54:56;0.30;;;0.30;;
19782;SDS011;10051;40.294;-3.754;2022-09-27T14:00:20;0.85;;;0.35;;
19782;SDS011;10051;40.294;-3.754;2022-09-27T14:05:38;0.95;;;0.40;;
19782;SDS011;10051;40.294;-3.754;2022-09-27T14:08:06;2.85;;;0.30;;
19782;SDS011;10051;40.294;-3.754;2022-09-27T14:10:46;3.75;;;0.30;;
19782;SDS011;10051;40.294;-3.754;2022-09-27T14:13:12;1.08;;;0.30;;
19782;SDS011;10051;40.294;-3.754;2022-09-27T14:15:43;0.80;;;0.25;;
19782;SDS011;10051;40.294;-3.754;2022-09-27T14:18:11;0.73;;;0.32;;
19782;SDS011;10051;40.294;-3.754;2022-09-27T14:20:42;0.20;;;0.20;;
19782;SDS011;10051;40.294;-3.754;2022-09-27T14:23:21;0.60;;;0.30;;
19782;SDS011;10051;40.294;-3.754;2022-09-27T14:25:50;0.40;;;0.32;;
19782;SDS011;10051;40.294;-3.754;2022-09-27T14:28:27;0.57;;;0.30;;
19782;SDS011;10051;40.294;-3.754;2022-09-27T14:33:43;0.65;;;0.40;;
19782;SDS011;10051;40.294;-3.754;2022-09-27T14:36:25;1.10;;;0.30;;
19782;SDS011;10051;40.294;-3.754;2022-09-27T14:39:27;0.40;;;0.40;;
19782;SDS011;10051;40.294;-3.754;2022-09-27T14:41:59;0.32;;;0.30;;
19782;SDS011;10051;40.294;-3.754;2022-09-27T14:44:26;1.48;;;0.55;;
19782;SDS011;10051;40.294;-3.754;2022-09-27T14:52:22;1.55;;;0.30;;
19782;SDS011;10051;40.294;-3.754;2022-09-27T14:54:56;0.85;;;0.30;;
19782;SDS011;10051;40.294;-3.754;2022-09-27T14:57:23;1.17;;;0.40;;
19782;SDS011;10051;40.294;-3.754;2022-09-27T14:59:51;1.13;;;0.40;;
19782;SDS011;10051;40.294;-3.754;2022-09-27T15:02:17;1.20;;;0.40;;
19782;SDS011;10051;40.294;-3.754;2022-09-27T15:04:46;0.82;;;0.40;;
19782;SDS011;10051;40.294;-3.754;2022-09-27T15:07:15;0.88;;;0.35;;
19782;SDS011;10051;40.294;-3.754;2022-09-27T15:09:43;2.75;;;0.40;;
19782;SDS011;10051;40.294;-3.754;2022-09-27T15:12:10;1.10;;;0.40;;
19782;SDS011;10051;40.294;-3.754;2022-09-27T15:14:40;1.08;;;0.32;;
19782;SDS011;10051;40.294;-3.754;2022-09-27T15:17:16;2.47;;;0.40;;
19782;SDS011;10051;40.294;-3.754;2022-09-27T15:20:01;2.80;;;0.50;;
19782;SDS011;10051;40.294;-3.754;2022-09-27T15:22:42;1.52;;;0.30;;
19782;SDS011;10051;40.294;-3.754;2022-09-27T15:27:45;0.70;;;0.30;;
19782;SDS011;10051;40.294;-3.754;2022-09-27T15:30:16;1.60;;;0.32;;
19782;SDS011;10051;40.294;-3.754;2022-09-27T15:32:51;1.48;;;0.30;;
19782;SDS011;10051;40.294;-3.754;2022-09-27T15:35:21;0.60;;;0.38;;
19782;SDS011;10051;40.294;-3.754;2022-09-27T15:37:48;1.25;;;0.45;;
19782;SDS011;10051;40.294;-3.754;2022-09-27T15:42:59;3.08;;;0.43;;
19782;SDS011;10051;40.294;-3.754;2022-09-27T15:45:29;1.30;;;0.50;;
19782;SDS011;10051;40.294;-3.754;2022-09-27T15:48:31;3.08;;;0.60;;
19782;SDS011;10051;40.294;-3.754;2022-09-27T15:50:49;1.52;;;0.50;;
19782;SDS011;10051;40.294;-3.754;2022-09-27T15:56:00;2.08;;;0.68;;
19782;SDS011;10051;40.294;-3.754;2022-09-27T15:58:27;2.00;;;0.60;;
19782;SDS011;10051;40.294;-3.754;2022-09-27T16:01:00;0.70;;;0.40;;
19782;SDS011;10051;40.294;-3.754;2022-09-27T16:03:27;0.70;;;0.40;;
19782;SDS011;10051;40.294;-3.754;2022-09-27T16:05:56;1.70;;;0.35;;
19782;SDS011;10051;40.294;-3.754;2022-09-27T16:08:25;1.23;;;0.40;;
19782;SDS011;10051;40.294;-3.754;2022-09-27T16:10:52;2.42;;;0.35;;
19782;SDS011;10051;40.294;-3.754;2022-09-27T16:13:19;0.55;;;0.40;;
19782;SDS011;10051;40.294;-3.754;2022-09-27T16:15:45;1.20;;;0.40;;
19782;SDS011;10051;40.294;-3.754;2022-09-27T16:18:12;1.60;;;0.40;;
19782;SDS011;10051;40.294;-3.754;2022-09-27T16:20:38;0.80;;;0.40;;
19782;SDS011;10051;40.294;-3.754;2022-09-27T16:23:04;1.77;;;0.50;;
19782;SDS011;10051;40.294;-3.754;2022-09-27T16:25:29;1.08;;;0.47;;
19782;SDS011;10051;40.294;-3.754;2022-09-27T16:27:58;3.60;;;0.52;;
19782;SDS011;10051;40.294;-3.754;2022-09-27T16:30:25;1.50;;;0.45;;
19782;SDS011;10051;40.294;-3.754;2022-09-27T16:32:51;1.45;;;0.60;;
19782;SDS011;10051;40.294;-3.754;2022-09-27T16:35:17;3.13;;;0.50;;
19782;SDS011;10051;40.294;-3.754;2022-09-27T16:37:44;1.10;;;0.52;;
19782;SDS011;10051;40.294;-3.754;2022-09-27T16:40:10;1.00;;;0.50;;
19782;SDS011;10051;40.294;-3.754;2022-09-27T16:42:37;2.03;;;0.50;;
19782;SDS011;10051;40.294;-3.754;2022-09-27T16:45:04;2.30;;;0.47;;
19782;SDS011;10051;40.294;-3.754;2022-09-27T16:47:30;5.18;;;0.40;;
19782;SDS011;10051;40.294;-3.754;2022-09-27T16:49:56;1.65;;;0.50;;
19782;SDS011;10051;40.294;-3.754;2022-09-27T16:52:40;2.15;;;0.52;;
19782;SDS011;10051;40.294;-3.754;2022-09-27T16:55:07;1.35;;;0.50;;
19782;SDS011;10051;40.294;-3.754;2022-09-27T16:57:33;3.30;;;0.50;;
19782;SDS011;10051;40.294;-3.754;2022-09-27T17:00:00;1.00;;;0.43;;
19782;SDS011;10051;40.294;-3.754;2022-09-27T17:02:25;1.65;;;0.50;;
19782;SDS011;10051;40.294;-3.754;2022-09-27T17:04:51;1.48;;;0.50;;
19782;SDS011;10051;40.294;-3.754;2022-09-27T17:07:17;0.40;;;0.30;;
19782;SDS011;10051;40.294;-3.754;2022-09-27T17:09:43;3.03;;;0.52;;
19782;SDS011;10051;40.294;-3.754;2022-09-27T17:12:09;2.05;;;0.50;;
19782;SDS011;10051;40.294;-3.754;2022-09-27T17:14:35;1.15;;;0.45;;
19782;SDS011;10051;40.294;-3.754;2022-09-27T17:17:00;3.40;;;0.38;;
19782;SDS011;10051;40.294;-3.754;2022-09-27T17:19:26;0.40;;;0.40;;
19782;SDS011;10051;40.294;-3.754;2022-09-27T17:21:52;2.28;;;0.70;;
19782;SDS011;10051;40.294;-3.754;2022-09-27T17:24:19;1.00;;;0.50;;
19782;SDS011;10051;40.294;-3.754;2022-09-27T17:26:47;0.68;;;0.47;;
19782;SDS011;10051;40.294;-3.754;2022-09-27T17:29:12;1.00;;;0.40;;
19782;SDS011;10051;40.294;-3.754;2022-09-27T17:31:39;1.65;;;0.50;;
19782;SDS011;10051;40.294;-3.754;2022-09-27T17:34:06;2.38;;;0.52;;
19782;SDS011;10051;40.294;-3.754;2022-09-27T17:36:35;1.17;;;0.40;;
19782;SDS011;10051;40.294;-3.754;2022-09-27T17:39:02;2.15;;;0.40;;
19782;SDS011;10051;40.294;-3.754;2022-09-27T17:41:28;1.77;;;0.40;;
19782;SDS011;10051;40.294;-3.754;2022-09-27T17:43:55;1.95;;;0.50;;
19782;SDS011;10051;40.294;-3.754;2022-09-27T17:46:27;1.70;;;0.40;;
19782;SDS011;10051;40.294;-3.754;2022-09-27T17:48:54;0.80;;;0.40;;
19782;SDS011;10051;40.294;-3.754;2022-09-27T17:51:39;2.25;;;0.50;;
19782;SDS011;10051;40.294;-3.754;2022-09-27T17:54:06;1.40;;;0.50;;
19782;SDS011;10051;40.294;-3.754;2022-09-27T17:56:37;1.27;;;0.45;;
19782;SDS011;10051;40.294;-3.754;2022-09-27T17:59:03;1.35;;;0.50;;
19782;SDS011;10051;40.294;-3.754;2022-09-27T18:01:29;0.80;;;0.30;;
19782;SDS011;10051;40.294;-3.754;2022-09-27T18:03:56;2.08;;;0.50;;
19782;SDS011;10051;40.294;-3.754;2022-09-27T18:06:23;1.85;;;0.50;;
19782;SDS011;10051;40.294;-3.754;2022-09-27T18:08:52;3.33;;;0.40;;
19782;SDS011;10051;40.294;-3.754;2022-09-27T18:11:25;3.88;;;0.40;;
19782;SDS011;10051;40.294;-3.754;2022-09-27T18:13:57;1.58;;;0.50;;
19782;SDS011;10051;40.294;-3.754;2022-09-27T18:16:27;1.65;;;0.40;;
19782;SDS011;10051;40.294;-3.754;2022-09-27T18:18:55;1.40;;;0.40;;